sensor_id;sensor_type;location;lat;lon;timestamp;pressure;altitude;pressure_sealevel;temperature;humidity
21102;BME280;10709;49.006;12.100;2023-05-10T12:17:05;48769.53;;;-146.00;65.30
21102;BME280;10709;49.006;12.100;2023-05-10T12:19:49;48751.91;;;-146.00;64.18
21102;BME280;10709;49.006;12.100;2023-05-10T12:22:20;48781.31;;;-146.00;65.23
21102;BME280;10709;49.006;12.100;2023-05-10T12:24:47;48755.84;;;-146.00;65.48
21102;BME280;10709;49.006;12.100;2023-05-10T12:27:14;48785.22;;;-146.00;66.38
21102;BME280;10709;49.006;12.100;2023-05-10T12:29:41;48785.22;;;-146.00;65.97
21102;BME280;10709;49.006;12.100;2023-05-10T12:32:10;48753.88;;;-146.00;65.51
21102;BME280;10709;49.006;12.100;2023-05-10T12:34:37;48773.47;;;-146.00;66.87
21102;BME280;10709;49.006;12.100;2023-05-10T12:37:04;48773.47;;;-146.00;65.77
21102;BME280;10709;49.006;12.100;2023-05-10T12:39:42;48802.84;;;-146.00;70.26
21102;BME280;10709;49.006;12.100;2023-05-10T12:42:08;48851.81;;;-146.00;79.93
21102;BME280;10709;49.006;12.100;2023-05-10T12:44:35;48922.34;;;-146.00;84.62
21102;BME280;10709;49.006;12.100;2023-05-10T12:47:02;48977.19;;;-146.00;92.17
21102;BME280;10709;49.006;12.100;2023-05-10T12:49:28;48977.19;;;-146.00;91.56
21102;BME280;10709;49.006;12.100;2023-05-10T12:51:55;48934.09;;;-146.00;93.15
21102;BME280;10709;49.006;12.100;2023-05-10T12:54:22;48963.50;;;-146.00;91.15
21102;BME280;10709;49.006;12.100;2023-05-10T12:56:48;48961.53;;;-146.00;91.15
21102;BME280;10709;49.006;12.100;2023-05-10T12:59:14;48949.78;;;-146.00;87.61
21102;BME280;10709;49.006;12.100;2023-05-10T13:01:41;48930.19;;;-146.00;84.42
21102;BME280;10709;49.006;12.100;2023-05-10T13:04:07;48922.34;;;-146.00;84.03
21102;BME280;10709;49.006;12.100;2023-05-10T13:06:34;48969.38;;;-146.00;86.22
21102;BME280;10709;49.006;12.100;2023-05-10T13:09:01;48938.03;;;-146.00;87.19
21102;BME280;10709;49.006;12.100;2023-05-10T13:11:27;48961.53;;;-146.00;87.64
21102;BME280;10709;49.006;12.100;2023-05-10T13:13:54;48939.97;;;-146.00;86.56
21102;BME280;10709;49.006;12.100;2023-05-10T13:16:20;48961.53;;;-146.00;86.68
21102;BME280;10709;49.006;12.100;2023-05-10T13:18:47;48961.53;;;-146.00;88.88
21102;BME280;10709;49.006;12.100;2023-05-10T13:21:13;48973.28;;;-146.00;90.00
21102;BME280;10709;49.006;12.100;2023-05-10T13:23:40;48985.03;;;-146.00;92.91
21102;BME280;10709;49.006;12.100;2023-05-10T13:26:06;48981.13;;;-146.00;91.56
21102;BME280;10709;49.006;12.100;2023-05-10T13:28:33;48969.38;;;-146.00;91.16
21102;BME280;10709;49.006;12.100;2023-05-10T13:31:02;48949.78;;;-146.00;92.61
21102;BME280;10709;49.006;12.100;2023-05-10T13:33:29;48949.78;;;-146.00;95.54
21102;BME280;10709;49.006;12.100;2023-05-10T13:35:55;48941.94;;;-146.00;94.88
21102;BME280;10709;49.006;12.100;2023-05-10T13:38:22;48951.72;;;-146.00;94.25
21102;BME280;10709;49.006;12.100;2023-05-10T13:40:48;48959.56;;;-146.00;94.92
21102;BME280;10709;49.006;12.100;2023-05-10T13:43:19;48961.53;;;-146.00;93.35
21102;BME280;10709;49.006;12.100;2023-05-10T13:45:45;48990.91;;;-146.00;92.86
21102;BME280;10709;49.006;12.100;2023-05-10T13:48:12;48961.53;;;-146.00;91.08
21102;BME280;10709;49.006;12.100;2023-05-10T13:50:38;48965.44;;;-146.00;86.73
21102;BME280;10709;49.006;12.100;2023-05-10T13:53:05;48969.38;;;-146.00;86.38
21102;BME280;10709;49.006;12.100;2023-05-10T13:55:31;48963.50;;;-146.00;87.52
21102;BME280;10709;49.006;12.100;2023-05-10T13:57:58;48965.44;;;-146.00;89.02
21102;BME280;10709;49.006;12.100;2023-05-10T14:00:24;48961.53;;;-146.00;91.17
21102;BME280;10709;49.006;12.100;2023-05-10T14:02:51;48973.28;;;-146.00;87.91
21102;BME280;10709;49.006;12.100;2023-05-10T14:05:17;48965.44;;;-146.00;91.38
21102;BME280;10709;49.006;12.100;2023-05-10T14:07:50;48992.88;;;-146.00;88.38
21102;BME280;10709;49.006;12.100;2023-05-10T14:10:16;48985.03;;;-146.00;90.35
21102;BME280;10709;49.006;12.100;2023-05-10T14:12:42;48981.13;;;-146.00;93.33
21102;BME280;10709;49.006;12.100;2023-05-10T14:15:09;48945.84;;;-146.00;96.07
21102;BME280;10709;49.006;12.100;2023-05-10T14:17:37;48969.38;;;-146.00;92.59
21102;BME280;10709;49.006;12.100;2023-05-10T14:20:04;48951.72;;;-146.00;95.43
21102;BME280;10709;49.006;12.100;2023-05-10T14:22:31;48969.38;;;-146.00;95.71
21102;BME280;10709;49.006;12.100;2023-05-10T14:24:57;48973.28;;;-146.00;96.60
21102;BME280;10709;49.006;12.100;2023-05-10T14:27:24;48957.59;;;-146.00;97.59
21102;BME280;10709;49.006;12.100;2023-05-10T14:29:51;48961.53;;;-146.00;93.88
21102;BME280;10709;49.006;12.100;2023-05-10T14:32:17;48961.53;;;-146.00;93.91
21102;BME280;10709;49.006;12.100;2023-05-10T14:34:44;48969.38;;;-146.00;92.16
21102;BME280;10709;49.006;12.100;2023-05-10T14:37:11;48953.69;;;-146.00;93.82
21102;BME280;10709;49.006;12.100;2023-05-10T14:39:37;48936.06;;;-146.00;93.86
21102;BME280;10709;49.006;12.100;2023-05-10T14:42:04;48938.03;;;-146.00;92.56
21102;BME280;10709;49.006;12.100;2023-05-10T14:44:31;48949.78;;;-146.00;95.38
21102;BME280;10709;49.006;12.100;2023-05-10T14:46:57;48961.53;;;-146.00;92.71
21102;BME280;10709;49.006;12.100;2023-05-10T14:49:24;48945.84;;;-146.00;96.73
21102;BME280;10709;49.006;12.100;2023-05-10T14:51:52;48949.78;;;-146.00;98.35
21102;BME280;10709;49.006;12.100;2023-05-10T14:54:18;48945.84;;;-146.00;100.00
21102;BME280;10709;49.006;12.100;2023-05-10T14:56:45;48941.94;;;-146.00;97.67
21102;BME280;10709;49.006;12.100;2023-05-10T14:59:12;48949.78;;;-146.00;98.78
21102;BME280;10709;49.006;12.100;2023-05-10T15:01:39;48941.94;;;-146.00;98.59
21102;BME280;10709;49.006;12.100;2023-05-10T15:04:08;48949.78;;;-146.00;97.43
21102;BME280;10709;49.006;12.100;2023-05-10T15:06:35;48969.38;;;-146.00;96.10
21102;BME280;10709;49.006;12.100;2023-05-10T15:09:03;48941.94;;;-146.00;100.00
21102;BME280;10709;49.006;12.100;2023-05-10T15:11:29;48934.09;;;-146.00;100.00
21102;BME280;10709;49.006;12.100;2023-05-10T15:13:56;48953.69;;;-146.00;99.55
21102;BME280;10709;49.006;12.100;2023-05-10T15:16:22;48938.03;;;-146.00;100.00
21102;BME280;10709;49.006;12.100;2023-05-10T15:18:49;48939.97;;;-146.00;100.00
21102;BME280;10709;49.006;12.100;2023-05-10T15:21:16;48957.59;;;-146.00;95.93
21102;BME280;10709;49.006;12.100;2023-05-10T15:23:42;48961.53;;;-146.00;94.72
21102;BME280;10709;49.006;12.100;2023-05-10T15:26:08;48961.53;;;-146.00;98.06
21102;BME280;10709;49.006;12.100;2023-05-10T15:28:35;48938.03;;;-146.00;100.00
21102;BME280;10709;49.006;12.100;2023-05-10T15:31:01;48938.03;;;-146.00;100.00
21102;BME280;10709;49.006;12.100;2023-05-10T15:33:29;48928.22;;;-146.00;100.00
21102;BME280;10709;49.006;12.100;2023-05-10T15:35:55;48918.44;;;-146.00;100.00
21102;BME280;10709;49.006;12.100;2023-05-10T15:38:22;48934.09;;;-146.00;100.00
21102;BME280;10709;49.006;12.100;2023-05-10T15:40:48;48914.50;;;-146.00;100.00
21102;BME280;10709;49.006;12.100;2023-05-10T15:43:15;48902.75;;;-146.00;100.00
21102;BME280;10709;49.006;12.100;2023-05-10T15:45:42;48922.34;;;-146.00;100.00
21102;BME280;10709;49.006;12.100;2023-05-10T15:48:08;48906.69;;;-146.00;100.00
21102;BME280;10709;49.006;12.100;2023-05-10T15:50:35;48922.34;;;-146.00;100.00
21102;BME280;10709;49.006;12.100;2023-05-10T15:53:01;48930.19;;;-146.00;100.00
21102;BME280;10709;49.006;12.100;2023-05-10T15:55:28;48918.44;;;-146.00;100.00
21102;BME280;10709;49.006;12.100;2023-05-10T15:57:54;48918.44;;;-146.00;100.00
21102;BME280;10709;49.006;12.100;2023-05-10T16:00:20;48902.75;;;-146.00;100.00
21102;BME280;10709;49.006;12.100;2023-05-10T16:02:47;48910.59;;;-146.00;100.00
21102;BME280;10709;49.006;12.100;2023-05-10T16:05:14;48902.75;;;-146.00;100.00
21102;BME280;10709;49.006;12.100;2023-05-10T16:07:41;48910.59;;;-146.00;100.00
21102;BME280;10709;49.006;12.100;2023-05-10T16:10:09;48918.44;;;-146.00;100.00
21102;BME280;10709;49.006;12.100;2023-05-10T16:12:37;48910.59;;;-146.00;100.00
21102;BME280;10709;49.006;12.100;2023-05-10T16:15:04;48889.03;;;-146.00;100.00
21102;BME280;10709;49.006;12.100;2023-05-10T16:17:31;48889.03;;;-146.00;100.00
21102;BME280;10709;49.006;12.100;2023-05-10T16:19:58;48887.09;;;-146.00;100.00
21102;BME280;10709;49.006;12.100;2023-05-10T16:22:24;48891.00;;;-146.00;100.00
21102;BME280;10709;49.006;12.100;2023-05-10T16:24:52;48883.16;;;-146.00;100.00
21102;BME280;10709;49.006;12.100;2023-05-10T16:27:19;48887.09;;;-146.00;100.00
21102;BME280;10709;49.006;12.100;2023-05-10T16:29:46;48879.25;;;-146.00;100.00
21102;BME280;10709;49.006;12.100;2023-05-10T16:32:13;48871.41;;;-146.00;100.00
21102;BME280;10709;49.006;12.100;2023-05-10T16:34:39;48879.25;;;-146.00;100.00
21102;BME280;10709;49.006;12.100;2023-05-10T16:37:06;48883.16;;;-146.00;100.00
21102;BME280;10709;49.006;12.100;2023-05-10T17:48:25;48879.25;;;-146.00;100.00
21102;BME280;10709;49.006;12.100;2023-05-10T17:50:51;48859.66;;;-146.00;100.00
21102;BME280;10709;49.006;12.100;2023-05-10T17:53:18;48863.56;;;-146.00;100.00
21102;BME280;10709;49.006;12.100;2023-05-10T17:55:44;48863.56;;;-146.00;100.00
21102;BME280;10709;49.006;12.100;2023-05-10T17:58:11;48859.66;;;-146.00;100.00
21102;BME280;10709;49.006;12.100;2023-05-10T18:00:37;48863.56;;;-146.00;100.00
21102;BME280;10709;49.006;12.100;2023-05-10T18:03:04;48863.56;;;-146.00;100.00
21102;BME280;10709;49.006;12.100;2023-05-10T18:05:34;48871.41;;;-146.00;100.00
21102;BME280;10709;49.006;12.100;2023-05-10T18:08:02;48867.50;;;-146.00;100.00
21102;BME280;10709;49.006;12.100;2023-05-10T18:10:29;48871.41;;;-146.00;100.00
21102;BME280;10709;49.006;12.100;2023-05-10T18:12:56;48871.41;;;-146.00;100.00
21102;BME280;10709;49.006;12.100;2023-05-10T18:15:24;48865.53;;;-146.00;100.00
21102;BME280;10709;49.006;12.100;2023-05-10T18:17:51;48879.25;;;-146.00;100.00
21102;BME280;10709;49.006;12.100;2023-05-10T18:20:18;48871.41;;;-146.00;100.00
21102;BME280;10709;49.006;12.100;2023-05-10T18:22:44;48865.53;;;-146.00;100.00
21102;BME280;10709;49.006;12.100;2023-05-10T18:25:11;48865.53;;;-146.00;100.00
21102;BME280;10709;49.006;12.100;2023-05-10T18:27:37;48863.56;;;-146.00;100.00
21102;BME280;10709;49.006;12.100;2023-05-10T18:30:04;48871.41;;;-146.00;100.00
21102;BME280;10709;49.006;12.100;2023-05-10T18:32:32;48859.66;;;-146.00;100.00
21102;BME280;10709;49.006;12.100;2023-05-10T18:34:58;48863.56;;;-146.00;100.00
21102;BME280;10709;49.006;12.100;2023-05-10T18:37:25;48867.50;;;-146.00;100.00
21102;BME280;10709;49.006;12.100;2023-05-10T18:39:51;48867.50;;;-146.00;100.00
21102;BME280;10709;49.006;12.100;2023-05-10T18:42:18;48887.09;;;-146.00;100.00
21102;BME280;10709;49.006;12.100;2023-05-10T18:44:45;48869.44;;;-146.00;100.00
21102;BME280;10709;49.006;12.100;2023-05-10T18:47:12;48871.41;;;-146.00;100.00
21102;BME280;10709;49.006;12.100;2023-05-10T18:49:38;48881.22;;;-146.00;100.00
21102;BME280;10709;49.006;12.100;2023-05-10T18:52:04;48883.16;;;-146.00;100.00
21102;BME280;10709;49.006;12.100;2023-05-10T18:54:31;48879.25;;;-146.00;100.00
21102;BME280;10709;49.006;12.100;2023-05-10T18:56:58;48883.16;;;-146.00;100.00
21102;BME280;10709;49.006;12.100;2023-05-10T18:59:25;48879.25;;;-146.00;100.00
21102;BME280;10709;49.006;12.100;2023-05-10T19:01:52;48885.13;;;-146.00;100.00
21102;BME280;10709;49.006;12.100;2023-05-10T19:04:22;48879.25;;;-146.00;100.00
21102;BME280;10709;49.006;12.100;2023-05-10T19:06:48;48871.41;;;-146.00;100.00
21102;BME280;10709;49.006;12.100;2023-05-10T19:09:15;48869.44;;;-146.00;100.00
21102;BME280;10709;49.006;12.100;2023-05-10T19:11:41;48873.38;;;-146.00;100.00
21102;BME280;10709;49.006;12.100;2023-05-10T19:14:08;48871.41;;;-146.00;100.00
21102;BME280;10709;49.006;12.100;2023-05-10T19:16:34;48885.13;;;-146.00;100.00
21102;BME280;10709;49.006;12.100;2023-05-10T19:19:02;48871.41;;;-146.00;100.00
21102;BME280;10709;49.006;12.100;2023-05-10T19:21:29;48879.25;;;-146.00;100.00
21102;BME280;10709;49.006;12.100;2023-05-10T19:23:59;48873.38;;;-146.00;100.00
21102;BME280;10709;49.006;12.100;2023-05-10T19:26:27;48867.50;;;-146.00;100.00
21102;BME280;10709;49.006;12.100;2023-05-10T19:28:53;48875.34;;;-146.00;100.00
21102;BME280;10709;49.006;12.100;2023-05-10T19:31:20;48871.41;;;-146.00;100.00
21102;BME280;10709;49.006;12.100;2023-05-10T19:33:46;48887.09;;;-146.00;100.00
21102;BME280;10709;49.006;12.100;2023-05-10T19:36:13;48879.25;;;-146.00;100.00
21102;BME280;10709;49.006;12.100;2023-05-10T19:38:39;48883.16;;;-146.00;100.00
21102;BME280;10709;49.006;12.100;2023-05-10T19:41:06;48871.41;;;-146.00;100.00
21102;BME280;10709;49.006;12.100;2023-05-10T19:43:33;48879.25;;;-146.00;100.00
21102;BME280;10709;49.006;12.100;2023-05-10T19:46:01;48871.41;;;-146.00;100.00
21102;BME280;10709;49.006;12.100;2023-05-10T19:48:28;48875.34;;;-146.00;100.00
21102;BME280;10709;49.006;12.100;2023-05-10T19:51:02;48879.25;;;-146.00;100.00
21102;BME280;10709;49.006;12.100;2023-05-10T19:53:29;48871.41;;;-146.00;100.00
21102;BME280;10709;49.006;12.100;2023-05-10T19:56:01;48871.41;;;-146.00;100.00
21102;BME280;10709;49.006;12.100;2023-05-10T19:58:27;48867.50;;;-146.00;100.00
21102;BME280;10709;49.006;12.100;2023-05-10T20:00:54;48867.50;;;-146.00;100.00
21102;BME280;10709;49.006;12.100;2023-05-10T20:03:21;48871.41;;;-146.00;100.00
21102;BME280;10709;49.006;12.100;2023-05-10T20:05:47;48875.34;;;-146.00;100.00
21102;BME280;10709;49.006;12.100;2023-05-10T20:08:14;48879.25;;;-146.00;100.00
21102;BME280;10709;49.006;12.100;2023-05-10T20:10:40;48885.13;;;-146.00;100.00
21102;BME280;10709;49.006;12.100;2023-05-10T20:13:06;48881.22;;;-146.00;100.00
21102;BME280;10709;49.006;12.100;2023-05-10T20:15:33;48873.38;;;-146.00;100.00
21102;BME280;10709;49.006;12.100;2023-05-10T20:17:59;48875.34;;;-146.00;100.00
21102;BME280;10709;49.006;12.100;2023-05-10T20:20:26;48879.25;;;-146.00;100.00
21102;BME280;10709;49.006;12.100;2023-05-10T20:22:53;48867.50;;;-146.00;100.00
21102;BME280;10709;49.006;12.100;2023-05-10T20:25:19;48869.44;;;-146.00;100.00
21102;BME280;10709;49.006;12.100;2023-05-10T20:27:46;48879.25;;;-146.00;100.00
21102;BME280;10709;49.006;12.100;2023-05-10T20:30:12;48871.41;;;-146.00;100.00
21102;BME280;10709;49.006;12.100;2023-05-10T20:32:39;48883.16;;;-146.00;100.00
21102;BME280;10709;49.006;12.100;2023-05-10T20:35:05;48867.50;;;-146.00;100.00
21102;BME280;10709;49.006;12.100;2023-05-10T20:37:32;48871.41;;;-146.00;100.00
21102;BME280;10709;49.006;12.100;2023-05-10T20:39:58;48871.41;;;-146.00;100.00
21102;BME280;10709;49.006;12.100;2023-05-10T20:42:25;48863.56;;;-146.00;100.00
21102;BME280;10709;49.006;12.100;2023-05-10T20:44:52;48887.09;;;-146.00;100.00
21102;BME280;10709;49.006;12.100;2023-05-10T20:47:18;48873.38;;;-146.00;100.00
21102;BME280;10709;49.006;12.100;2023-05-10T20:49:45;48871.41;;;-146.00;100.00
21102;BME280;10709;49.006;12.100;2023-05-10T20:52:11;48873.38;;;-146.00;100.00
21102;BME280;10709;49.006;12.100;2023-05-10T20:54:38;48879.25;;;-146.00;100.00
21102;BME280;10709;49.006;12.100;2023-05-10T20:57:04;48871.41;;;-146.00;100.00
21102;BME280;10709;49.006;12.100;2023-05-10T20:59:31;48871.41;;;-146.00;100.00
21102;BME280;10709;49.006;12.100;2023-05-10T21:01:57;48875.34;;;-146.00;100.00
21102;BME280;10709;49.006;12.100;2023-05-10T21:04:24;48869.44;;;-146.00;100.00
21102;BME280;10709;49.006;12.100;2023-05-10T21:06:51;48885.13;;;-146.00;100.00
21102;BME280;10709;49.006;12.100;2023-05-10T21:09:18;48871.41;;;-146.00;100.00
21102;BME280;10709;49.006;12.100;2023-05-10T21:11:44;48881.22;;;-146.00;100.00
21102;BME280;10709;49.006;12.100;2023-05-10T21:14:11;48873.38;;;-146.00;100.00
21102;BME280;10709;49.006;12.100;2023-05-10T21:16:37;48867.50;;;-146.00;100.00
21102;BME280;10709;49.006;12.100;2023-05-10T21:19:04;48875.34;;;-146.00;100.00
21102;BME280;10709;49.006;12.100;2023-05-10T21:21:32;48885.13;;;-146.00;100.00
21102;BME280;10709;49.006;12.100;2023-05-10T21:23:59;48879.25;;;-146.00;100.00
21102;BME280;10709;49.006;12.100;2023-05-10T21:26:25;48871.41;;;-146.00;100.00
21102;BME280;10709;49.006;12.100;2023-05-10T21:28:52;48883.16;;;-146.00;100.00
21102;BME280;10709;49.006;12.100;2023-05-10T21:31:18;48875.34;;;-146.00;100.00
21102;BME280;10709;49.006;12.100;2023-05-10T21:33:45;48883.16;;;-146.00;100.00
21102;BME280;10709;49.006;12.100;2023-05-10T21:36:11;48873.38;;;-146.00;100.00
21102;BME280;10709;49.006;12.100;2023-05-10T21:38:38;48873.38;;;-146.00;100.00
21102;BME280;10709;49.006;12.100;2023-05-10T21:41:06;48875.34;;;-146.00;100.00
21102;BME280;10709;49.006;12.100;2023-05-10T21:43:33;48879.25;;;-146.00;100.00
21102;BME280;10709;49.006;12.100;2023-05-10T21:45:59;48871.41;;;-146.00;100.00
21102;BME280;10709;49.006;12.100;2023-05-10T21:48:26;48875.34;;;-146.00;100.00
21102;BME280;10709;49.006;12.100;2023-05-10T21:50:53;48873.38;;;-146.00;100.00
21102;BME280;10709;49.006;12.100;2023-05-10T21:53:19;48879.25;;;-146.00;100.00
21102;BME280;10709;49.006;12.100;2023-05-10T21:55:46;48875.34;;;-146.00;100.00
21102;BME280;10709;49.006;12.100;2023-05-10T21:58:13;48873.38;;;-146.00;100.00
21102;BME280;10709;49.006;12.100;2023-05-10T22:00:39;48871.41;;;-146.00;100.00
21102;BME280;10709;49.006;12.100;2023-05-10T22:03:06;48891.00;;;-146.00;100.00
21102;BME280;10709;49.006;12.100;2023-05-10T22:05:33;48889.03;;;-146.00;100.00
21102;BME280;10709;49.006;12.100;2023-05-10T22:07:59;48883.16;;;-146.00;100.00
21102;BME280;10709;49.006;12.100;2023-05-10T22:10:26;48885.13;;;-146.00;100.00
21102;BME280;10709;49.006;12.100;2023-05-10T22:12:53;48892.97;;;-146.00;100.00
21102;BME280;10709;49.006;12.100;2023-05-10T22:15:19;48887.09;;;-146.00;100.00
21102;BME280;10709;49.006;12.100;2023-05-10T22:17:46;48887.09;;;-146.00;100.00
21102;BME280;10709;49.006;12.100;2023-05-10T22:20:12;48883.16;;;-146.00;100.00
21102;BME280;10709;49.006;12.100;2023-05-10T22:22:39;48887.09;;;-146.00;100.00
21102;BME280;10709;49.006;12.100;2023-05-10T22:25:05;48881.22;;;-146.00;100.00
21102;BME280;10709;49.006;12.100;2023-05-10T22:27:33;48891.00;;;-146.00;100.00
21102;BME280;10709;49.006;12.100;2023-05-10T22:29:59;48879.25;;;-146.00;100.00
21102;BME280;10709;49.006;12.100;2023-05-10T22:32:27;48881.22;;;-146.00;100.00
21102;BME280;10709;49.006;12.100;2023-05-10T22:34:53;48879.25;;;-146.00;100.00
21102;BME280;10709;49.006;12.100;2023-05-10T22:37:20;48887.09;;;-146.00;100.00
21102;BME280;10709;49.006;12.100;2023-05-10T22:39:47;48881.22;;;-146.00;100.00
21102;BME280;10709;49.006;12.100;2023-05-10T22:42:15;48887.09;;;-146.00;100.00
21102;BME280;10709;49.006;12.100;2023-05-10T22:44:42;48875.34;;;-146.00;100.00
21102;BME280;10709;49.006;12.100;2023-05-10T22:47:09;48887.09;;;-146.00;100.00
21102;BME280;10709;49.006;12.100;2023-05-10T22:49:36;48891.00;;;-146.00;100.00
21102;BME280;10709;49.006;12.100;2023-05-10T22:52:02;48889.03;;;-146.00;100.00
21102;BME280;10709;49.006;12.100;2023-05-10T22:54:29;48885.13;;;-146.00;100.00
21102;BME280;10709;49.006;12.100;2023-05-10T22:56:55;48879.25;;;-146.00;100.00
21102;BME280;10709;49.006;12.100;2023-05-10T22:59:22;48879.25;;;-146.00;100.00
21102;BME280;10709;49.006;12.100;2023-05-10T23:01:48;48875.34;;;-146.00;100.00
21102;BME280;10709;49.006;12.100;2023-05-10T23:04:15;48883.16;;;-146.00;100.00
21102;BME280;10709;49.006;12.100;2023-05-10T23:06:42;48887.09;;;-146.00;100.00
21102;BME280;10709;49.006;12.100;2023-05-10T23:09:09;48896.88;;;-146.00;100.00
21102;BME280;10709;49.006;12.100;2023-05-10T23:11:35;48883.16;;;-146.00;100.00
21102;BME280;10709;49.006;12.100;2023-05-10T23:14:02;48894.91;;;-146.00;100.00
21102;BME280;10709;49.006;12.100;2023-05-10T23:16:28;48902.75;;;-146.00;100.00
21102;BME280;10709;49.006;12.100;2023-05-10T23:18:55;48902.75;;;-146.00;100.00
21102;BME280;10709;49.006;12.100;2023-05-10T23:21:22;48896.88;;;-146.00;100.00
21102;BME280;10709;49.006;12.100;2023-05-10T23:23:50;48902.75;;;-146.00;100.00
21102;BME280;10709;49.006;12.100;2023-05-10T23:26:17;48898.84;;;-146.00;100.00
21102;BME280;10709;49.006;12.100;2023-05-10T23:28:43;48904.72;;;-146.00;100.00
21102;BME280;10709;49.006;12.100;2023-05-10T23:31:10;48908.63;;;-146.00;100.00
21102;BME280;10709;49.006;12.100;2023-05-10T23:33:36;48908.63;;;-146.00;100.00
21102;BME280;10709;49.006;12.100;2023-05-10T23:36:03;48898.84;;;-146.00;100.00
21102;BME280;10709;49.006;12.100;2023-05-10T23:38:30;48914.50;;;-146.00;100.00
21102;BME280;10709;49.006;12.100;2023-05-10T23:40:57;48910.59;;;-146.00;100.00
21102;BME280;10709;49.006;12.100;2023-05-10T23:43:23;48898.84;;;-146.00;100.00
21102;BME280;10709;49.006;12.100;2023-05-10T23:45:54;48906.69;;;-146.00;100.00
21102;BME280;10709;49.006;12.100;2023-05-10T23:48:21;48906.69;;;-146.00;100.00
21102;BME280;10709;49.006;12.100;2023-05-10T23:50:48;48908.63;;;-146.00;100.00
21102;BME280;10709;49.006;12.100;2023-05-10T23:53:15;48914.50;;;-146.00;100.00
21102;BME280;10709;49.006;12.100;2023-05-10T23:55:41;48902.75;;;-146.00;100.00
21102;BME280;10709;49.006;12.100;2023-05-10T23:58:08;48910.59;;;-146.00;100.00
